Historyczne dane pomiarowe

Dodano dane terminowe – wersja testowa.

Dane z okresu 1951-2019

Wersja bazy: 1.34 [2019-03-16, lista zmian], aktualizacja planowana na 2019-04-15

Dane meteo z obszaru Polski uzyskane na podstawie danych udostępnionych przez Instytut Meteorologii i Gospodarki Wodnej – Państwowy Instytut Badawczy.

 

Wybierz Datę:    

       

TemperaturaWilgotnośćZachmurzenieWiatrCiśnienieWidzialnośćZjawiska
 Data    tng td wb rh cc ccl cl cm ch dir g1 g2 mslp ppp      
1994-07-01 00:00:00 10.0--- 9.1 9.594wxwx0wx--1025.3 983.7 0.0---wx
1994-07-01 01:00:00 9.8--- 9.1 9.495wxwx0wx--1024.9 983.3----wx
1994-07-01 02:00:00 9.3--- 9.3 9.3100wxwx0wx--1024.6 983.0----wx
1994-07-01 03:00:00 9.3--- 9.3 9.3100wxwx0wx--1024.9 983.2----wx
1994-07-01 04:00:00 8.3--- 8.3 8.3100wxwx0wx--1025.0 983.2----wxw1
1994-07-01 05:00:00 9.5--- 9.5 9.5100wxwx0wx--1024.8 983.2----wxw1
1994-07-01 06:00:00 12.3--- 11.8 12.097wxwxwxwx0wx--1024.4 983.2 0.2---wx
1994-07-01 07:00:00 16.1--- 11.1 13.272wxwxwx1wx--1023.4 982.8----wx
1994-07-01 08:00:00 17.9--- 10.2 13.561wxwxwx1wx--1023.1 982.7----wx
1994-07-01 09:00:00 18.6--- 9.8 13.657wxwxwx1wx--1023.0 982.7----wx
1994-07-01 10:00:00 20.0--- 8.6 13.648wxwxwxwx1wx--1022.4 982.3----wx
1994-07-01 11:00:00 21.0--- 10.1 14.750wxwxwxwx2wx--1021.8 981.9----wx
1994-07-01 12:00:00 21.0--- 9.7 14.548wxwxwxwx1wx--1021.7 981.8 0.0---wx
1994-07-01 13:00:00 22.3--- 10.1 15.246wxwxwxwx1wx--1021.0 981.3----wx
1994-07-01 14:00:00 22.3--- 10.3 15.347wxwxwxwx0wx--1020.8 981.1----wx
1994-07-01 15:00:00 22.7--- 10.2 15.445wxwxwxwx1wx--1020.6 981.0----wx
1994-07-01 16:00:00 21.7--- 9.7 14.847wxwxwxwx0wx--1020.6 980.8----wx
1994-07-01 17:00:00 21.4--- 9.8 14.748wxwxwx1wx--1020.2 980.4----wx
1994-07-01 18:00:00 20.6--- 11.3 15.155wxwxwx0wx--1020.2 980.3 0.0---wx
1994-07-01 19:00:00 17.0--- 11.5 13.870wxwxwx0wx--1021.0 980.6----wx
1994-07-01 20:00:00 14.6--- 11.3 12.781wxwx0wx--1021.4 980.6----wx
1994-07-01 21:00:00 13.0--- 10.7 11.786wxwx0wx--1022.3 981.3----wx
1994-07-01 22:00:00 11.4--- 10.3 10.893wxwx0wx--1022.7 981.4----wx
1994-07-01 23:00:00 10.6--- 9.5 10.093wxwx0wx--1022.6 981.2----wx

 

Źródłem pochodzenia danych jest Instytut Meteorologii i Gospodarki Wodnej – Państwowy Instytut Badawczy. Dane Instytutu Meteorologii i Gospodarki Wodnej – Państwowego Instytutu Badawczego zostały przetworzone.

Dane źródłowe można odnaleźć na stronie https://dane.imgw.pl